Αρχική σελίδα
METAR-TAF:

METAR-TAF

Αεροδρόμια :

Τύνιδα, Τυνησία

γεωγραφικό πλάτος: 36-50N, γεωγραφικό μήκος: 010-14E, υψόμετρο: 3 μ

Παρών καιρός

Η αναφορά έγινε 21 λεπτά πριν, στις 12:30 UTC
Άνεμος 4 kt από Β/BA
Θερμοκρασία 29°C
Υγρασία 45%
Πίεση 1017 hPa
Ορατότητα 10 χλμ και άνω
Λίγα νέφη σε ύψος 2600 πόδια

METAR: DTTA 201230Z 03004KT 9999 FEW026 29/16 Q1017 NOSIG

Χρόνος: 13:51 (12:51 UTC)

Πρόγνωση Καιρού

Η αναφορά έγινε 51 λεπτά πριν, στις 12:00 UTC
Η πρόγνωση ισχύει από τις 20 στις 12 UTC έως τις 21 στις 12 UTC
Άνεμος 10 kt από Β
Ορατότητα 10 χλμ και άνω
Δεν υπάρχουν νέφη με βάση κάτω από τα 1500 μ. και δεν υπάρχουν νέφη σωρειτομελανίτες.
Πιθανότητα 30% :
Προσωρινά
από 20 στις 14 UTC έως τις 20 στις 18 UTC
Ορατότητα: 4000 μ
Λίγα νέφη σε ύψος 2300 πόδια, Σωρειτομελανίτες.
καταιγίδα, Ασθενής βροχή

TAF: DTTA 201200Z 2012/2112 01010KT CAVOK PROB30 TEMPO 2014/2018 4000 -TSRA FEW023CB

Μετεωρολογικές αναφορές και προγνώσεις για περισσότερα από 4000 αεροδρόμια (δελτία METAR και TAF).

Οι διαθέσιμοι σταθμοί απεικονίζονται στο χάρτη με κίτρινες και κόκκινες κουκκίδες.

Μετακινήστε το ποντίκι πάνω από τις κουκκίδες για να δείτε το όνομα του σταθμού.

Στη συνέχεια, κάντε κλικ για να δείτε τις μετεωρολογικές αναφορές και τις προγνώσεις καιρού.

Για να αλλάξετε το χάρτη: κάντε κλικ στα πράσινα κουμπιά με τον μαύρο σταυρό για να ζουμάρετε, στο πράσινο κουμπί με την παύλα για να αφαιρέσετε το ζουμ ή στα πράσινα βέλη για να αντιπαραβάλλετε χάρτες.


METAR-TAF: